sensor_id;sensor_type;location;lat;lon;timestamp;P1;durP1;ratioP1;P2;durP2;ratioP2
26824;SDS011;14402;48.178;11.566;2022-08-19T00:00:24;4.7;;;3.7;;
26824;SDS011;14402;48.178;11.566;2022-08-19T00:00:54;4.7;;;3.7;;
26824;SDS011;14402;48.178;11.566;2022-08-19T00:01:24;4.8;;;3.7;;
26824;SDS011;14402;48.178;11.566;2022-08-19T00:01:55;4.8;;;3.6;;
26824;SDS011;14402;48.178;11.566;2022-08-19T00:02:24;4.8;;;3.6;;
26824;SDS011;14402;48.178;11.566;2022-08-19T00:02:54;4.8;;;3.6;;
26824;SDS011;14402;48.178;11.566;2022-08-19T00:03:24;4.4;;;3.7;;
26824;SDS011;14402;48.178;11.566;2022-08-19T00:03:54;4.1;;;3.7;;
26824;SDS011;14402;48.178;11.566;2022-08-19T00:04:26;4.1;;;3.7;;
26824;SDS011;14402;48.178;11.566;2022-08-19T00:04:54;4.1;;;3.7;;
26824;SDS011;14402;48.178;11.566;2022-08-19T00:05:24;4.3;;;3.8;;
26824;SDS011;14402;48.178;11.566;2022-08-19T00:05:54;4.6;;;3.8;;
26824;SDS011;14402;48.178;11.566;2022-08-19T00:06:24;4.6;;;3.8;;
26824;SDS011;14402;48.178;11.566;2022-08-19T00:06:54;4.6;;;3.8;;
26824;SDS011;14402;48.178;11.566;2022-08-19T00:07:24;4.8;;;3.8;;
26824;SDS011;14402;48.178;11.566;2022-08-19T00:07:54;5.1;;;3.7;;
26824;SDS011;14402;48.178;11.566;2022-08-19T00:08:24;5.1;;;3.7;;
26824;SDS011;14402;48.178;11.566;2022-08-19T00:08:54;5.1;;;3.7;;
26824;SDS011;14402;48.178;11.566;2022-08-19T00:09:24;4.6;;;3.7;;
26824;SDS011;14402;48.178;11.566;2022-08-19T00:09:54;4.1;;;3.7;;
26824;SDS011;14402;48.178;11.566;2022-08-19T00:10:24;4.1;;;3.7;;
26824;SDS011;14402;48.178;11.566;2022-08-19T00:10:54;4.1;;;3.7;;
26824;SDS011;14402;48.178;11.566;2022-08-19T00:11:24;4.6;;;3.8;;
26824;SDS011;14402;48.178;11.566;2022-08-19T00:11:55;5.0;;;4.0;;
26824;SDS011;14402;48.178;11.566;2022-08-19T00:12:24;5.0;;;4.0;;
26824;SDS011;14402;48.178;11.566;2022-08-19T00:12:54;5.0;;;4.0;;
26824;SDS011;14402;48.178;11.566;2022-08-19T00:13:24;4.8;;;4.0;;
26824;SDS011;14402;48.178;11.566;2022-08-19T00:13:54;4.7;;;3.9;;
26824;SDS011;14402;48.178;11.566;2022-08-19T00:14:25;4.7;;;3.9;;
26824;SDS011;14402;48.178;11.566;2022-08-19T00:14:54;4.7;;;3.9;;
26824;SDS011;14402;48.178;11.566;2022-08-19T00:15:24;4.4;;;3.7;;
26824;SDS011;14402;48.178;11.566;2022-08-19T00:15:54;4.1;;;3.5;;
26824;SDS011;14402;48.178;11.566;2022-08-19T00:16:24;4.1;;;3.5;;
26824;SDS011;14402;48.178;11.566;2022-08-19T00:16:54;4.1;;;3.5;;
26824;SDS011;14402;48.178;11.566;2022-08-19T00:17:25;4.3;;;3.7;;
26824;SDS011;14402;48.178;11.566;2022-08-19T00:17:54;4.5;;;3.9;;
26824;SDS011;14402;48.178;11.566;2022-08-19T00:18:24;4.5;;;3.9;;
26824;SDS011;14402;48.178;11.566;2022-08-19T00:18:54;4.5;;;3.9;;
26824;SDS011;14402;48.178;11.566;2022-08-19T00:19:24;5.4;;;4.4;;
26824;SDS011;14402;48.178;11.566;2022-08-19T00:19:54;6.4;;;4.8;;
26824;SDS011;14402;48.178;11.566;2022-08-19T00:20:24;6.4;;;4.8;;
26824;SDS011;14402;48.178;11.566;2022-08-19T00:20:54;6.4;;;4.8;;
26824;SDS011;14402;48.178;11.566;2022-08-19T00:21:24;6.2;;;4.8;;
26824;SDS011;14402;48.178;11.566;2022-08-19T00:21:54;6.1;;;4.7;;
26824;SDS011;14402;48.178;11.566;2022-08-19T00:22:24;6.1;;;4.7;;
26824;SDS011;14402;48.178;11.566;2022-08-19T00:22:54;6.1;;;4.7;;
26824;SDS011;14402;48.178;11.566;2022-08-19T00:23:24;5.8;;;4.6;;
26824;SDS011;14402;48.178;11.566;2022-08-19T00:23:54;5.4;;;4.4;;
26824;SDS011;14402;48.178;11.566;2022-08-19T00:24:24;5.4;;;4.4;;
26824;SDS011;14402;48.178;11.566;2022-08-19T00:24:54;5.4;;;4.4;;
26824;SDS011;14402;48.178;11.566;2022-08-19T00:25:24;5.1;;;4.2;;
26824;SDS011;14402;48.178;11.566;2022-08-19T00:25:54;4.7;;;3.9;;
26824;SDS011;14402;48.178;11.566;2022-08-19T00:26:25;4.7;;;3.9;;
26824;SDS011;14402;48.178;11.566;2022-08-19T00:26:54;4.7;;;3.9;;
26824;SDS011;14402;48.178;11.566;2022-08-19T00:27:24;4.6;;;4.0;;
26824;SDS011;14402;48.178;11.566;2022-08-19T00:27:54;4.4;;;4.0;;
26824;SDS011;14402;48.178;11.566;2022-08-19T00:28:24;4.4;;;4.0;;
26824;SDS011;14402;48.178;11.566;2022-08-19T00:28:54;4.4;;;4.0;;
26824;SDS011;14402;48.178;11.566;2022-08-19T00:29:24;5.6;;;4.2;;
26824;SDS011;14402;48.178;11.566;2022-08-19T00:29:54;6.8;;;4.3;;
26824;SDS011;14402;48.178;11.566;2022-08-19T00:30:24;6.8;;;4.3;;
26824;SDS011;14402;48.178;11.566;2022-08-19T00:30:54;6.8;;;4.3;;
26824;SDS011;14402;48.178;11.566;2022-08-19T00:31:24;9.8;;;5.8;;
26824;SDS011;14402;48.178;11.566;2022-08-19T00:31:54;12.8;;;7.2;;
26824;SDS011;14402;48.178;11.566;2022-08-19T00:32:24;12.8;;;7.2;;
26824;SDS011;14402;48.178;11.566;2022-08-19T00:32:54;12.8;;;7.2;;
26824;SDS011;14402;48.178;11.566;2022-08-19T00:33:24;10.1;;;6.1;;
26824;SDS011;14402;48.178;11.566;2022-08-19T00:33:54;7.3;;;5.0;;
26824;SDS011;14402;48.178;11.566;2022-08-19T00:34:25;7.3;;;5.0;;
26824;SDS011;14402;48.178;11.566;2022-08-19T00:34:54;7.3;;;5.0;;
26824;SDS011;14402;48.178;11.566;2022-08-19T00:35:24;6.4;;;4.8;;
26824;SDS011;14402;48.178;11.566;2022-08-19T00:35:54;5.4;;;4.7;;
26824;SDS011;14402;48.178;11.566;2022-08-19T00:36:24;5.4;;;4.7;;
26824;SDS011;14402;48.178;11.566;2022-08-19T00:36:55;5.4;;;4.7;;
26824;SDS011;14402;48.178;11.566;2022-08-19T00:37:24;5.9;;;4.8;;
26824;SDS011;14402;48.178;11.566;2022-08-19T00:37:54;6.3;;;4.9;;
26824;SDS011;14402;48.178;11.566;2022-08-19T00:38:24;6.3;;;4.9;;
26824;SDS011;14402;48.178;11.566;2022-08-19T00:38:54;6.3;;;4.9;;
26824;SDS011;14402;48.178;11.566;2022-08-19T00:39:25;6.5;;;4.5;;
26824;SDS011;14402;48.178;11.566;2022-08-19T00:39:54;6.7;;;4.1;;
26824;SDS011;14402;48.178;11.566;2022-08-19T00:40:25;6.7;;;4.1;;
26824;SDS011;14402;48.178;11.566;2022-08-19T00:40:54;6.7;;;4.1;;
26824;SDS011;14402;48.178;11.566;2022-08-19T00:41:25;5.8;;;4.1;;
26824;SDS011;14402;48.178;11.566;2022-08-19T00:41:54;5.0;;;4.0;;
26824;SDS011;14402;48.178;11.566;2022-08-19T00:42:24;5.0;;;4.0;;
26824;SDS011;14402;48.178;11.566;2022-08-19T00:42:54;5.0;;;4.0;;
26824;SDS011;14402;48.178;11.566;2022-08-19T00:43:25;4.8;;;3.9;;
26824;SDS011;14402;48.178;11.566;2022-08-19T00:43:56;4.7;;;3.8;;
26824;SDS011;14402;48.178;11.566;2022-08-19T00:44:25;4.7;;;3.8;;
26824;SDS011;14402;48.178;11.566;2022-08-19T00:44:54;4.7;;;3.8;;
26824;SDS011;14402;48.178;11.566;2022-08-19T00:45:26;4.6;;;3.9;;
26824;SDS011;14402;48.178;11.566;2022-08-19T00:45:54;4.6;;;4.1;;
26824;SDS011;14402;48.178;11.566;2022-08-19T00:46:24;4.6;;;4.1;;
26824;SDS011;14402;48.178;11.566;2022-08-19T00:46:55;4.6;;;4.1;;
26824;SDS011;14402;48.178;11.566;2022-08-19T00:47:25;5.1;;;4.0;;
26824;SDS011;14402;48.178;11.566;2022-08-19T00:47:55;5.6;;;3.9;;
26824;SDS011;14402;48.178;11.566;2022-08-19T00:48:24;5.6;;;3.9;;
26824;SDS011;14402;48.178;11.566;2022-08-19T00:48:55;5.6;;;3.9;;
26824;SDS011;14402;48.178;11.566;2022-08-19T00:49:27;4.9;;;3.9;;
26824;SDS011;14402;48.178;11.566;2022-08-19T00:49:56;4.3;;;3.9;;
26824;SDS011;14402;48.178;11.566;2022-08-19T00:50:24;4.3;;;3.9;;
26824;SDS011;14402;48.178;11.566;2022-08-19T00:50:54;4.3;;;3.9;;
26824;SDS011;14402;48.178;11.566;2022-08-19T00:51:25;5.6;;;3.9;;
26824;SDS011;14402;48.178;11.566;2022-08-19T00:51:57;6.9;;;3.9;;
26824;SDS011;14402;48.178;11.566;2022-08-19T00:52:26;6.9;;;3.9;;
26824;SDS011;14402;48.178;11.566;2022-08-19T00:52:54;6.9;;;3.9;;
26824;SDS011;14402;48.178;11.566;2022-08-19T00:53:26;5.9;;;3.9;;
26824;SDS011;14402;48.178;11.566;2022-08-19T00:53:55;4.8;;;3.9;;
26824;SDS011;14402;48.178;11.566;2022-08-19T00:54:25;4.8;;;3.9;;
26824;SDS011;14402;48.178;11.566;2022-08-19T00:54:55;4.8;;;3.9;;
26824;SDS011;14402;48.178;11.566;2022-08-19T00:55:25;4.8;;;3.9;;
26824;SDS011;14402;48.178;11.566;2022-08-19T00:55:56;4.9;;;3.9;;
26824;SDS011;14402;48.178;11.566;2022-08-19T00:56:25;5.1;;;3.9;;
26824;SDS011;14402;48.178;11.566;2022-08-19T00:56:55;5.1;;;3.9;;
26824;SDS011;14402;48.178;11.566;2022-08-19T00:57:27;5.1;;;3.9;;
26824;SDS011;14402;48.178;11.566;2022-08-19T00:57:56;5.2;;;4.0;;
26824;SDS011;14402;48.178;11.566;2022-08-19T00:58:26;5.3;;;4.1;;
26824;SDS011;14402;48.178;11.566;2022-08-19T00:58:55;5.3;;;4.1;;
26824;SDS011;14402;48.178;11.566;2022-08-19T00:59:25;5.3;;;4.1;;
26824;SDS011;14402;48.178;11.566;2022-08-19T00:59:55;4.8;;;3.9;;
26824;SDS011;14402;48.178;11.566;2022-08-19T01:00:25;4.2;;;3.8;;
26824;SDS011;14402;48.178;11.566;2022-08-19T01:00:55;4.2;;;3.8;;
26824;SDS011;14402;48.178;11.566;2022-08-19T01:01:25;4.2;;;3.8;;
26824;SDS011;14402;48.178;11.566;2022-08-19T01:01:55;5.0;;;3.9;;
26824;SDS011;14402;48.178;11.566;2022-08-19T01:02:25;5.8;;;4.0;;
26824;SDS011;14402;48.178;11.566;2022-08-19T01:02:55;5.8;;;4.0;;
26824;SDS011;14402;48.178;11.566;2022-08-19T01:03:25;5.8;;;4.0;;
26824;SDS011;14402;48.178;11.566;2022-08-19T01:03:55;6.1;;;4.0;;
26824;SDS011;14402;48.178;11.566;2022-08-19T01:04:25;6.3;;;3.9;;
26824;SDS011;14402;48.178;11.566;2022-08-19T01:04:55;6.3;;;3.9;;
26824;SDS011;14402;48.178;11.566;2022-08-19T01:05:25;6.3;;;3.9;;
26824;SDS011;14402;48.178;11.566;2022-08-19T01:05:55;6.2;;;4.0;;
26824;SDS011;14402;48.178;11.566;2022-08-19T01:06:25;6.1;;;4.1;;
26824;SDS011;14402;48.178;11.566;2022-08-19T01:06:55;6.1;;;4.1;;
26824;SDS011;14402;48.178;11.566;2022-08-19T01:07:25;6.1;;;4.1;;
26824;SDS011;14402;48.178;11.566;2022-08-19T01:07:55;5.8;;;4.1;;
26824;SDS011;14402;48.178;11.566;2022-08-19T01:08:25;5.5;;;4.2;;
26824;SDS011;14402;48.178;11.566;2022-08-19T01:08:55;5.5;;;4.2;;
26824;SDS011;14402;48.178;11.566;2022-08-19T01:09:25;5.5;;;4.2;;
26824;SDS011;14402;48.178;11.566;2022-08-19T01:09:55;5.1;;;4.1;;
26824;SDS011;14402;48.178;11.566;2022-08-19T01:10:25;4.7;;;4.1;;
26824;SDS011;14402;48.178;11.566;2022-08-19T01:10:56;4.7;;;4.1;;
26824;SDS011;14402;48.178;11.566;2022-08-19T01:11:25;4.7;;;4.1;;
26824;SDS011;14402;48.178;11.566;2022-08-19T01:11:55;4.5;;;4.0;;
26824;SDS011;14402;48.178;11.566;2022-08-19T01:12:25;4.3;;;3.9;;
26824;SDS011;14402;48.178;11.566;2022-08-19T01:12:55;4.3;;;3.9;;
26824;SDS011;14402;48.178;11.566;2022-08-19T01:13:25;4.3;;;3.9;;
26824;SDS011;14402;48.178;11.566;2022-08-19T01:13:55;4.6;;;4.0;;
26824;SDS011;14402;48.178;11.566;2022-08-19T01:14:25;4.8;;;4.0;;
26824;SDS011;14402;48.178;11.566;2022-08-19T01:14:55;4.8;;;4.0;;
26824;SDS011;14402;48.178;11.566;2022-08-19T01:15:25;4.8;;;4.0;;
26824;SDS011;14402;48.178;11.566;2022-08-19T01:15:56;5.3;;;4.2;;
26824;SDS011;14402;48.178;11.566;2022-08-19T01:16:25;5.8;;;4.4;;
26824;SDS011;14402;48.178;11.566;2022-08-19T01:16:55;5.8;;;4.4;;
26824;SDS011;14402;48.178;11.566;2022-08-19T01:17:26;5.8;;;4.4;;
26824;SDS011;14402;48.178;11.566;2022-08-19T01:17:55;5.5;;;4.6;;
26824;SDS011;14402;48.178;11.566;2022-08-19T01:18:25;5.2;;;4.7;;
26824;SDS011;14402;48.178;11.566;2022-08-19T01:18:55;5.2;;;4.7;;
26824;SDS011;14402;48.178;11.566;2022-08-19T01:19:26;5.2;;;4.7;;
26824;SDS011;14402;48.178;11.566;2022-08-19T01:19:55;5.6;;;4.7;;
26824;SDS011;14402;48.178;11.566;2022-08-19T01:20:25;6.0;;;4.7;;
26824;SDS011;14402;48.178;11.566;2022-08-19T01:20:56;6.0;;;4.7;;
26824;SDS011;14402;48.178;11.566;2022-08-19T01:21:26;6.0;;;4.7;;
26824;SDS011;14402;48.178;11.566;2022-08-19T01:21:55;7.1;;;4.7;;
26824;SDS011;14402;48.178;11.566;2022-08-19T01:22:27;8.1;;;4.7;;
26824;SDS011;14402;48.178;11.566;2022-08-19T01:22:56;8.1;;;4.7;;
26824;SDS011;14402;48.178;11.566;2022-08-19T01:23:25;8.1;;;4.7;;
26824;SDS011;14402;48.178;11.566;2022-08-19T01:23:55;7.2;;;4.7;;
26824;SDS011;14402;48.178;11.566;2022-08-19T01:24:25;6.2;;;4.7;;
26824;SDS011;14402;48.178;11.566;2022-08-19T01:24:55;6.2;;;4.7;;
26824;SDS011;14402;48.178;11.566;2022-08-19T01:25:26;6.2;;;4.7;;
26824;SDS011;14402;48.178;11.566;2022-08-19T01:25:55;5.9;;;4.4;;
26824;SDS011;14402;48.178;11.566;2022-08-19T01:26:25;5.7;;;4.2;;
26824;SDS011;14402;48.178;11.566;2022-08-19T01:26:55;5.7;;;4.2;;
26824;SDS011;14402;48.178;11.566;2022-08-19T01:27:25;5.7;;;4.2;;
26824;SDS011;14402;48.178;11.566;2022-08-19T01:27:55;5.4;;;4.4;;
26824;SDS011;14402;48.178;11.566;2022-08-19T01:28:26;5.1;;;4.6;;
26824;SDS011;14402;48.178;11.566;2022-08-19T01:28:55;5.1;;;4.6;;
26824;SDS011;14402;48.178;11.566;2022-08-19T01:29:25;5.1;;;4.6;;
26824;SDS011;14402;48.178;11.566;2022-08-19T01:29:55;5.9;;;4.6;;
26824;SDS011;14402;48.178;11.566;2022-08-19T01:30:26;6.7;;;4.5;;
26824;SDS011;14402;48.178;11.566;2022-08-19T01:30:55;6.7;;;4.5;;
26824;SDS011;14402;48.178;11.566;2022-08-19T01:31:26;6.7;;;4.5;;
26824;SDS011;14402;48.178;11.566;2022-08-19T01:31:55;6.1;;;4.6;;
26824;SDS011;14402;48.178;11.566;2022-08-19T01:32:25;5.4;;;4.7;;
26824;SDS011;14402;48.178;11.566;2022-08-19T01:32:55;5.4;;;4.7;;
26824;SDS011;14402;48.178;11.566;2022-08-19T01:33:25;5.4;;;4.7;;
26824;SDS011;14402;48.178;11.566;2022-08-19T01:33:56;5.5;;;4.7;;
26824;SDS011;14402;48.178;11.566;2022-08-19T01:34:25;5.6;;;4.7;;
26824;SDS011;14402;48.178;11.566;2022-08-19T01:34:55;5.6;;;4.7;;
26824;SDS011;14402;48.178;11.566;2022-08-19T01:35:26;5.6;;;4.7;;
26824;SDS011;14402;48.178;11.566;2022-08-19T01:36:02;5.4;;;4.7;;
26824;SDS011;14402;48.178;11.566;2022-08-19T01:36:29;5.2;;;4.7;;
26824;SDS011;14402;48.178;11.566;2022-08-19T01:36:55;5.2;;;4.7;;
26824;SDS011;14402;48.178;11.566;2022-08-19T01:37:25;5.2;;;4.7;;
26824;SDS011;14402;48.178;11.566;2022-08-19T01:37:56;5.1;;;4.5;;
26824;SDS011;14402;48.178;11.566;2022-08-19T01:38:26;5.1;;;4.3;;
26824;SDS011;14402;48.178;11.566;2022-08-19T01:38:55;5.1;;;4.3;;
26824;SDS011;14402;48.178;11.566;2022-08-19T01:39:25;5.1;;;4.3;;
26824;SDS011;14402;48.178;11.566;2022-08-19T01:39:55;5.9;;;4.4;;
26824;SDS011;14402;48.178;11.566;2022-08-19T01:40:26;6.8;;;4.6;;
26824;SDS011;14402;48.178;11.566;2022-08-19T01:40:55;6.8;;;4.6;;
26824;SDS011;14402;48.178;11.566;2022-08-19T01:41:25;6.8;;;4.6;;
26824;SDS011;14402;48.178;11.566;2022-08-19T01:41:55;7.2;;;4.6;;
26824;SDS011;14402;48.178;11.566;2022-08-19T01:42:25;7.5;;;4.6;;
26824;SDS011;14402;48.178;11.566;2022-08-19T01:42:55;7.5;;;4.6;;
26824;SDS011;14402;48.178;11.566;2022-08-19T01:43:25;7.5;;;4.6;;
26824;SDS011;14402;48.178;11.566;2022-08-19T01:43:55;6.3;;;4.6;;
26824;SDS011;14402;48.178;11.566;2022-08-19T01:44:25;5.2;;;4.7;;
26824;SDS011;14402;48.178;11.566;2022-08-19T01:44:55;5.2;;;4.7;;
26824;SDS011;14402;48.178;11.566;2022-08-19T01:45:26;5.2;;;4.7;;
26824;SDS011;14402;48.178;11.566;2022-08-19T01:45:55;6.3;;;4.7;;
26824;SDS011;14402;48.178;11.566;2022-08-19T01:46:25;7.4;;;4.7;;
26824;SDS011;14402;48.178;11.566;2022-08-19T01:46:55;7.4;;;4.7;;
26824;SDS011;14402;48.178;11.566;2022-08-19T01:47:25;7.4;;;4.7;;
26824;SDS011;14402;48.178;11.566;2022-08-19T01:47:57;6.4;;;4.6;;
26824;SDS011;14402;48.178;11.566;2022-08-19T01:48:25;5.3;;;4.6;;
26824;SDS011;14402;48.178;11.566;2022-08-19T01:48:55;5.3;;;4.6;;
26824;SDS011;14402;48.178;11.566;2022-08-19T01:49:25;5.3;;;4.6;;
26824;SDS011;14402;48.178;11.566;2022-08-19T01:49:55;4.9;;;4.3;;
26824;SDS011;14402;48.178;11.566;2022-08-19T01:50:25;4.4;;;4.0;;
26824;SDS011;14402;48.178;11.566;2022-08-19T01:50:55;4.4;;;4.0;;
26824;SDS011;14402;48.178;11.566;2022-08-19T01:51:25;4.4;;;4.0;;
26824;SDS011;14402;48.178;11.566;2022-08-19T01:51:55;5.2;;;4.2;;
26824;SDS011;14402;48.178;11.566;2022-08-19T01:52:25;5.9;;;4.4;;
26824;SDS011;14402;48.178;11.566;2022-08-19T01:52:55;5.9;;;4.4;;
26824;SDS011;14402;48.178;11.566;2022-08-19T01:53:25;5.9;;;4.4;;
26824;SDS011;14402;48.178;11.566;2022-08-19T01:53:55;6.1;;;4.4;;
26824;SDS011;14402;48.178;11.566;2022-08-19T01:54:25;6.2;;;4.4;;
26824;SDS011;14402;48.178;11.566;2022-08-19T01:54:55;6.2;;;4.4;;
26824;SDS011;14402;48.178;11.566;2022-08-19T01:55:25;6.2;;;4.4;;
26824;SDS011;14402;48.178;11.566;2022-08-19T01:55:55;6.1;;;4.6;;
26824;SDS011;14402;48.178;11.566;2022-08-19T01:56:25;6.1;;;4.8;;
26824;SDS011;14402;48.178;11.566;2022-08-19T01:56:57;6.1;;;4.8;;
26824;SDS011;14402;48.178;11.566;2022-08-19T01:57:25;6.1;;;4.8;;
26824;SDS011;14402;48.178;11.566;2022-08-19T01:57:56;6.3;;;5.1;;
26824;SDS011;14402;48.178;11.566;2022-08-19T01:58:26;6.5;;;5.3;;
26824;SDS011;14402;48.178;11.566;2022-08-19T01:58:57;6.5;;;5.3;;
26824;SDS011;14402;48.178;11.566;2022-08-19T01:59:25;6.5;;;5.3;;
26824;SDS011;14402;48.178;11.566;2022-08-19T01:59:55;6.2;;;4.9;;
26824;SDS011;14402;48.178;11.566;2022-08-19T02:00:26;5.8;;;4.5;;
26824;SDS011;14402;48.178;11.566;2022-08-19T02:00:55;5.8;;;4.5;;
26824;SDS011;14402;48.178;11.566;2022-08-19T02:01:25;5.8;;;4.5;;
26824;SDS011;14402;48.178;11.566;2022-08-19T02:01:55;6.7;;;4.6;;
26824;SDS011;14402;48.178;11.566;2022-08-19T02:02:25;7.5;;;4.7;;
26824;SDS011;14402;48.178;11.566;2022-08-19T02:02:55;7.5;;;4.7;;
26824;SDS011;14402;48.178;11.566;2022-08-19T02:03:25;7.5;;;4.7;;
26824;SDS011;14402;48.178;11.566;2022-08-19T02:03:55;7.1;;;5.1;;
26824;SDS011;14402;48.178;11.566;2022-08-19T02:04:25;6.6;;;5.6;;
26824;SDS011;14402;48.178;11.566;2022-08-19T02:04:55;6.6;;;5.6;;
26824;SDS011;14402;48.178;11.566;2022-08-19T02:05:25;6.6;;;5.6;;
26824;SDS011;14402;48.178;11.566;2022-08-19T02:05:56;7.9;;;5.2;;
26824;SDS011;14402;48.178;11.566;2022-08-19T02:06:25;9.1;;;4.9;;
26824;SDS011;14402;48.178;11.566;2022-08-19T02:06:57;9.1;;;4.9;;
26824;SDS011;14402;48.178;11.566;2022-08-19T02:07:25;9.1;;;4.9;;
26824;SDS011;14402;48.178;11.566;2022-08-19T02:07:55;7.8;;;4.9;;
26824;SDS011;14402;48.178;11.566;2022-08-19T02:08:25;6.4;;;4.8;;
26824;SDS011;14402;48.178;11.566;2022-08-19T02:08:55;6.4;;;4.8;;
26824;SDS011;14402;48.178;11.566;2022-08-19T02:09:25;6.4;;;4.8;;
26824;SDS011;14402;48.178;11.566;2022-08-19T02:09:55;5.4;;;4.4;;
26824;SDS011;14402;48.178;11.566;2022-08-19T02:10:25;4.5;;;4.1;;
26824;SDS011;14402;48.178;11.566;2022-08-19T02:10:55;4.5;;;4.1;;
26824;SDS011;14402;48.178;11.566;2022-08-19T02:11:26;4.5;;;4.1;;
26824;SDS011;14402;48.178;11.566;2022-08-19T02:11:55;4.9;;;4.2;;
26824;SDS011;14402;48.178;11.566;2022-08-19T02:12:25;5.3;;;4.3;;
26824;SDS011;14402;48.178;11.566;2022-08-19T02:12:55;5.3;;;4.3;;
26824;SDS011;14402;48.178;11.566;2022-08-19T02:13:25;5.3;;;4.3;;
26824;SDS011;14402;48.178;11.566;2022-08-19T02:13:55;5.2;;;4.4;;
26824;SDS011;14402;48.178;11.566;2022-08-19T02:14:25;5.0;;;4.5;;
26824;SDS011;14402;48.178;11.566;2022-08-19T02:14:55;5.0;;;4.5;;
26824;SDS011;14402;48.178;11.566;2022-08-19T02:15:25;5.0;;;4.5;;
26824;SDS011;14402;48.178;11.566;2022-08-19T02:15:55;6.1;;;5.3;;
26824;SDS011;14402;48.178;11.566;2022-08-19T02:16:25;7.1;;;6.2;;
26824;SDS011;14402;48.178;11.566;2022-08-19T02:16:55;7.1;;;6.2;;
26824;SDS011;14402;48.178;11.566;2022-08-19T02:17:25;7.1;;;6.2;;
26824;SDS011;14402;48.178;11.566;2022-08-19T02:17:55;8.1;;;6.4;;
26824;SDS011;14402;48.178;11.566;2022-08-19T02:18:25;9.2;;;6.7;;
26824;SDS011;14402;48.178;11.566;2022-08-19T02:18:56;9.2;;;6.7;;
26824;SDS011;14402;48.178;11.566;2022-08-19T02:19:26;9.2;;;6.7;;
26824;SDS011;14402;48.178;11.566;2022-08-19T02:19:56;8.1;;;6.3;;
26824;SDS011;14402;48.178;11.566;2022-08-19T02:20:25;7.1;;;5.9;;
26824;SDS011;14402;48.178;11.566;2022-08-19T02:20:55;7.1;;;5.9;;
26824;SDS011;14402;48.178;11.566;2022-08-19T02:21:26;7.1;;;5.9;;
26824;SDS011;14402;48.178;11.566;2022-08-19T02:21:55;6.7;;;5.8;;
26824;SDS011;14402;48.178;11.566;2022-08-19T02:22:25;6.3;;;5.7;;
26824;SDS011;14402;48.178;11.566;2022-08-19T02:22:55;6.3;;;5.7;;
26824;SDS011;14402;48.178;11.566;2022-08-19T02:23:25;6.3;;;5.7;;
26824;SDS011;14402;48.178;11.566;2022-08-19T02:23:56;6.2;;;5.6;;
26824;SDS011;14402;48.178;11.566;2022-08-19T02:24:25;6.0;;;5.4;;
26824;SDS011;14402;48.178;11.566;2022-08-19T02:24:56;6.0;;;5.4;;
26824;SDS011;14402;48.178;11.566;2022-08-19T02:25:25;6.0;;;5.4;;
26824;SDS011;14402;48.178;11.566;2022-08-19T02:25:56;6.0;;;5.4;;
26824;SDS011;14402;48.178;11.566;2022-08-19T02:26:25;7.3;;;6.7;;
26824;SDS011;14402;48.178;11.566;2022-08-19T02:26:55;8.7;;;7.9;;
26824;SDS011;14402;48.178;11.566;2022-08-19T02:27:26;8.7;;;7.9;;
26824;SDS011;14402;48.178;11.566;2022-08-19T02:27:55;8.7;;;7.9;;
26824;SDS011;14402;48.178;11.566;2022-08-19T02:28:26;7.3;;;6.6;;
26824;SDS011;14402;48.178;11.566;2022-08-19T02:28:56;5.9;;;5.3;;
26824;SDS011;14402;48.178;11.566;2022-08-19T02:29:26;5.9;;;5.3;;
26824;SDS011;14402;48.178;11.566;2022-08-19T02:29:56;5.9;;;5.3;;
26824;SDS011;14402;48.178;11.566;2022-08-19T02:30:26;5.9;;;5.3;;
26824;SDS011;14402;48.178;11.566;2022-08-19T02:30:55;5.9;;;5.3;;
26824;SDS011;14402;48.178;11.566;2022-08-19T02:31:26;5.9;;;5.3;;
26824;SDS011;14402;48.178;11.566;2022-08-19T02:31:56;5.9;;;5.3;;
26824;SDS011;14402;48.178;11.566;2022-08-19T02:32:26;5.9;;;5.4;;
26824;SDS011;14402;48.178;11.566;2022-08-19T02:32:56;6.0;;;5.4;;
26824;SDS011;14402;48.178;11.566;2022-08-19T02:33:26;6.0;;;5.4;;
26824;SDS011;14402;48.178;11.566;2022-08-19T02:33:56;6.0;;;5.4;;
26824;SDS011;14402;48.178;11.566;2022-08-19T02:34:26;6.7;;;6.1;;
26824;SDS011;14402;48.178;11.566;2022-08-19T02:34:56;7.4;;;6.7;;
26824;SDS011;14402;48.178;11.566;2022-08-19T02:35:26;7.4;;;6.7;;
26824;SDS011;14402;48.178;11.566;2022-08-19T02:35:56;7.4;;;6.7;;
26824;SDS011;14402;48.178;11.566;2022-08-19T02:36:26;6.2;;;5.6;;
26824;SDS011;14402;48.178;11.566;2022-08-19T02:36:56;4.9;;;4.4;;
26824;SDS011;14402;48.178;11.566;2022-08-19T02:37:26;4.9;;;4.4;;
26824;SDS011;14402;48.178;11.566;2022-08-19T02:38:32;4.9;;;4.4;;
26824;SDS011;14402;48.178;11.566;2022-08-19T02:38:32;4.3;;;3.8;;
26824;SDS011;14402;48.178;11.566;2022-08-19T02:38:56;3.8;;;3.2;;
26824;SDS011;14402;48.178;11.566;2022-08-19T02:39:26;3.8;;;3.2;;
26824;SDS011;14402;48.178;11.566;2022-08-19T02:39:56;3.8;;;3.2;;
26824;SDS011;14402;48.178;11.566;2022-08-19T02:40:26;4.1;;;3.2;;
26824;SDS011;14402;48.178;11.566;2022-08-19T02:40:56;4.3;;;3.2;;
26824;SDS011;14402;48.178;11.566;2022-08-19T02:41:26;4.3;;;3.2;;
26824;SDS011;14402;48.178;11.566;2022-08-19T02:41:56;4.3;;;3.2;;
26824;SDS011;14402;48.178;11.566;2022-08-19T02:42:26;3.5;;;2.6;;
26824;SDS011;14402;48.178;11.566;2022-08-19T02:42:56;2.6;;;2.0;;
26824;SDS011;14402;48.178;11.566;2022-08-19T02:43:26;2.6;;;2.0;;
26824;SDS011;14402;48.178;11.566;2022-08-19T02:43:56;2.6;;;2.0;;
26824;SDS011;14402;48.178;11.566;2022-08-19T02:44:26;2.6;;;1.6;;
26824;SDS011;14402;48.178;11.566;2022-08-19T02:44:56;2.6;;;1.3;;
26824;SDS011;14402;48.178;11.566;2022-08-19T02:45:26;2.6;;;1.3;;
26824;SDS011;14402;48.178;11.566;2022-08-19T02:45:56;2.6;;;1.3;;
26824;SDS011;14402;48.178;11.566;2022-08-19T02:46:26;2.5;;;1.3;;
26824;SDS011;14402;48.178;11.566;2022-08-19T02:46:56;2.4;;;1.3;;
26824;SDS011;14402;48.178;11.566;2022-08-19T02:47:26;2.4;;;1.3;;
26824;SDS011;14402;48.178;11.566;2022-08-19T02:47:56;2.4;;;1.3;;
26824;SDS011;14402;48.178;11.566;2022-08-19T02:48:26;2.5;;;1.1;;
26824;SDS011;14402;48.178;11.566;2022-08-19T02:48:57;2.5;;;1.0;;
26824;SDS011;14402;48.178;11.566;2022-08-19T02:49:26;2.5;;;1.0;;
26824;SDS011;14402;48.178;11.566;2022-08-19T02:49:56;2.5;;;1.0;;
26824;SDS011;14402;48.178;11.566;2022-08-19T02:50:26;2.5;;;1.5;;
26824;SDS011;14402;48.178;11.566;2022-08-19T02:50:56;2.5;;;1.9;;
26824;SDS011;14402;48.178;11.566;2022-08-19T02:51:27;2.5;;;1.9;;
26824;SDS011;14402;48.178;11.566;2022-08-19T02:51:56;2.5;;;1.9;;
26824;SDS011;14402;48.178;11.566;2022-08-19T02:52:26;2.3;;;1.8;;
26824;SDS011;14402;48.178;11.566;2022-08-19T02:52:56;2.2;;;1.8;;
26824;SDS011;14402;48.178;11.566;2022-08-19T02:53:26;2.2;;;1.8;;
26824;SDS011;14402;48.178;11.566;2022-08-19T02:53:56;2.2;;;1.8;;
26824;SDS011;14402;48.178;11.566;2022-08-19T02:54:26;2.2;;;1.6;;
26824;SDS011;14402;48.178;11.566;2022-08-19T02:54:56;2.2;;;1.5;;
26824;SDS011;14402;48.178;11.566;2022-08-19T02:55:26;2.2;;;1.5;;
26824;SDS011;14402;48.178;11.566;2022-08-19T02:55:56;2.2;;;1.5;;
26824;SDS011;14402;48.178;11.566;2022-08-19T02:56:26;2.4;;;1.4;;
26824;SDS011;14402;48.178;11.566;2022-08-19T02:56:56;2.6;;;1.3;;
26824;SDS011;14402;48.178;11.566;2022-08-19T02:57:26;2.6;;;1.3;;
26824;SDS011;14402;48.178;11.566;2022-08-19T02:57:56;2.6;;;1.3;;
26824;SDS011;14402;48.178;11.566;2022-08-19T02:58:26;2.2;;;1.2;;
26824;SDS011;14402;48.178;11.566;2022-08-19T02:58:56;1.7;;;1.1;;
26824;SDS011;14402;48.178;11.566;2022-08-19T02:59:29;1.7;;;1.1;;
26824;SDS011;14402;48.178;11.566;2022-08-19T02:59:56;1.7;;;1.1;;
26824;SDS011;14402;48.178;11.566;2022-08-19T03:00:26;2.2;;;1.2;;
26824;SDS011;14402;48.178;11.566;2022-08-19T03:00:56;2.7;;;1.4;;
26824;SDS011;14402;48.178;11.566;2022-08-19T03:01:27;2.7;;;1.4;;
26824;SDS011;14402;48.178;11.566;2022-08-19T03:01:56;2.7;;;1.4;;
26824;SDS011;14402;48.178;11.566;2022-08-19T03:02:26;2.7;;;1.3;;
26824;SDS011;14402;48.178;11.566;2022-08-19T03:02:56;2.7;;;1.3;;
26824;SDS011;14402;48.178;11.566;2022-08-19T03:03:26;2.7;;;1.3;;